sensor_id;sensor_type;location;lat;lon;timestamp;temperature;humidity
7014;DHT22;3547;50.774;12.918;2024-01-25T00:00:08;7.00;1.00
7014;DHT22;3547;50.774;12.918;2024-01-25T00:02:34;7.00;1.00
7014;DHT22;3547;50.774;12.918;2024-01-25T00:05:00;7.00;1.00
7014;DHT22;3547;50.774;12.918;2024-01-25T00:07:26;7.00;1.00
7014;DHT22;3547;50.774;12.918;2024-01-25T00:09:53;7.00;1.00
7014;DHT22;3547;50.774;12.918;2024-01-25T00:12:19;7.10;1.00
7014;DHT22;3547;50.774;12.918;2024-01-25T00:14:45;7.10;1.00
7014;DHT22;3547;50.774;12.918;2024-01-25T00:17:11;7.10;1.00
7014;DHT22;3547;50.774;12.918;2024-01-25T00:19:37;7.00;1.00
7014;DHT22;3547;50.774;12.918;2024-01-25T00:22:03;7.10;1.00
7014;DHT22;3547;50.774;12.918;2024-01-25T00:24:30;7.10;1.00
7014;DHT22;3547;50.774;12.918;2024-01-25T00:26:56;7.00;1.00
7014;DHT22;3547;50.774;12.918;2024-01-25T00:29:22;7.00;1.00
7014;DHT22;3547;50.774;12.918;2024-01-25T00:31:48;7.00;1.00
7014;DHT22;3547;50.774;12.918;2024-01-25T00:34:15;6.90;1.00
7014;DHT22;3547;50.774;12.918;2024-01-25T00:36:41;7.00;1.00
7014;DHT22;3547;50.774;12.918;2024-01-25T00:39:07;6.90;1.00
7014;DHT22;3547;50.774;12.918;2024-01-25T00:41:35;6.90;1.00
7014;DHT22;3547;50.774;12.918;2024-01-25T00:44:01;6.80;1.00
7014;DHT22;3547;50.774;12.918;2024-01-25T00:46:28;6.90;1.00
7014;DHT22;3547;50.774;12.918;2024-01-25T00:48:54;6.80;1.00
7014;DHT22;3547;50.774;12.918;2024-01-25T00:51:22;6.80;1.00
7014;DHT22;3547;50.774;12.918;2024-01-25T00:53:51;6.80;1.00
7014;DHT22;3547;50.774;12.918;2024-01-25T00:56:17;6.80;1.00
7014;DHT22;3547;50.774;12.918;2024-01-25T00:58:44;6.80;1.00
7014;DHT22;3547;50.774;12.918;2024-01-25T01:01:10;6.80;1.00
7014;DHT22;3547;50.774;12.918;2024-01-25T01:03:37;6.70;1.00
7014;DHT22;3547;50.774;12.918;2024-01-25T01:06:03;6.70;1.00
7014;DHT22;3547;50.774;12.918;2024-01-25T01:08:30;6.70;1.00
7014;DHT22;3547;50.774;12.918;2024-01-25T01:10:56;6.60;1.00
7014;DHT22;3547;50.774;12.918;2024-01-25T01:13:22;6.60;1.00
7014;DHT22;3547;50.774;12.918;2024-01-25T01:15:48;6.60;1.00
7014;DHT22;3547;50.774;12.918;2024-01-25T01:18:14;6.50;1.00
7014;DHT22;3547;50.774;12.918;2024-01-25T01:20:40;6.50;1.00
7014;DHT22;3547;50.774;12.918;2024-01-25T01:23:06;6.60;1.00
7014;DHT22;3547;50.774;12.918;2024-01-25T01:25:33;6.60;1.00
7014;DHT22;3547;50.774;12.918;2024-01-25T01:27:59;6.50;1.00
7014;DHT22;3547;50.774;12.918;2024-01-25T01:30:25;6.50;1.00
7014;DHT22;3547;50.774;12.918;2024-01-25T01:32:51;6.50;1.00
7014;DHT22;3547;50.774;12.918;2024-01-25T01:35:17;6.50;1.00
7014;DHT22;3547;50.774;12.918;2024-01-25T01:37:43;6.50;1.00
7014;DHT22;3547;50.774;12.918;2024-01-25T01:40:10;6.50;1.00
7014;DHT22;3547;50.774;12.918;2024-01-25T01:42:36;6.50;1.00
7014;DHT22;3547;50.774;12.918;2024-01-25T01:45:02;6.50;1.00
7014;DHT22;3547;50.774;12.918;2024-01-25T01:47:28;6.50;1.00
7014;DHT22;3547;50.774;12.918;2024-01-25T01:49:55;6.50;1.00
7014;DHT22;3547;50.774;12.918;2024-01-25T01:52:21;6.60;1.00
7014;DHT22;3547;50.774;12.918;2024-01-25T01:54:48;6.60;1.00
7014;DHT22;3547;50.774;12.918;2024-01-25T01:57:14;6.60;1.00
7014;DHT22;3547;50.774;12.918;2024-01-25T01:59:40;6.50;1.00
7014;DHT22;3547;50.774;12.918;2024-01-25T02:02:07;6.60;1.00
7014;DHT22;3547;50.774;12.918;2024-01-25T02:04:35;6.60;1.00
7014;DHT22;3547;50.774;12.918;2024-01-25T02:07:01;6.60;1.00
7014;DHT22;3547;50.774;12.918;2024-01-25T02:16:44;6.60;1.00
7014;DHT22;3547;50.774;12.918;2024-01-25T02:19:12;6.60;1.00
7014;DHT22;3547;50.774;12.918;2024-01-25T02:21:39;6.50;1.00
7014;DHT22;3547;50.774;12.918;2024-01-25T02:24:15;6.50;1.00
7014;DHT22;3547;50.774;12.918;2024-01-25T02:26:41;6.50;1.00
7014;DHT22;3547;50.774;12.918;2024-01-25T02:29:07;6.50;1.00
7014;DHT22;3547;50.774;12.918;2024-01-25T02:31:35;6.50;1.00
7014;DHT22;3547;50.774;12.918;2024-01-25T02:34:01;6.50;1.00
7014;DHT22;3547;50.774;12.918;2024-01-25T02:36:27;6.50;1.00
7014;DHT22;3547;50.774;12.918;2024-01-25T02:38:54;6.50;1.00
7014;DHT22;3547;50.774;12.918;2024-01-25T02:41:20;6.50;1.00
7014;DHT22;3547;50.774;12.918;2024-01-25T02:43:46;6.50;1.00
7014;DHT22;3547;50.774;12.918;2024-01-25T02:46:12;6.50;1.00
7014;DHT22;3547;50.774;12.918;2024-01-25T02:48:38;6.50;1.00
7014;DHT22;3547;50.774;12.918;2024-01-25T02:51:04;6.50;1.00
7014;DHT22;3547;50.774;12.918;2024-01-25T02:53:30;6.50;1.00
7014;DHT22;3547;50.774;12.918;2024-01-25T02:55:57;6.50;1.00
7014;DHT22;3547;50.774;12.918;2024-01-25T02:58:23;6.40;1.00
7014;DHT22;3547;50.774;12.918;2024-01-25T03:00:49;6.40;1.00
7014;DHT22;3547;50.774;12.918;2024-01-25T03:03:15;6.40;1.00
7014;DHT22;3547;50.774;12.918;2024-01-25T03:05:42;6.40;1.00
7014;DHT22;3547;50.774;12.918;2024-01-25T03:08:08;6.40;1.00
7014;DHT22;3547;50.774;12.918;2024-01-25T03:10:34;6.40;1.00
7014;DHT22;3547;50.774;12.918;2024-01-25T03:13:03;6.30;1.00
7014;DHT22;3547;50.774;12.918;2024-01-25T03:15:29;6.30;1.00
7014;DHT22;3547;50.774;12.918;2024-01-25T03:17:55;6.30;1.00
7014;DHT22;3547;50.774;12.918;2024-01-25T03:20:21;6.30;1.00
7014;DHT22;3547;50.774;12.918;2024-01-25T03:22:47;6.30;1.00
7014;DHT22;3547;50.774;12.918;2024-01-25T03:25:13;6.30;1.00
7014;DHT22;3547;50.774;12.918;2024-01-25T03:27:40;6.30;1.00
7014;DHT22;3547;50.774;12.918;2024-01-25T03:30:06;6.30;1.00
7014;DHT22;3547;50.774;12.918;2024-01-25T03:32:35;6.30;1.00
7014;DHT22;3547;50.774;12.918;2024-01-25T03:35:02;6.30;1.00
7014;DHT22;3547;50.774;12.918;2024-01-25T03:37:28;6.30;1.00
7014;DHT22;3547;50.774;12.918;2024-01-25T03:39:54;6.30;1.00
7014;DHT22;3547;50.774;12.918;2024-01-25T03:42:20;6.30;1.00
7014;DHT22;3547;50.774;12.918;2024-01-25T03:44:47;6.20;1.00
7014;DHT22;3547;50.774;12.918;2024-01-25T03:47:13;6.20;1.00
7014;DHT22;3547;50.774;12.918;2024-01-25T03:49:39;6.20;1.00
7014;DHT22;3547;50.774;12.918;2024-01-25T03:52:05;6.30;1.00
7014;DHT22;3547;50.774;12.918;2024-01-25T03:54:32;6.20;1.00
7014;DHT22;3547;50.774;12.918;2024-01-25T03:56:58;6.20;1.00
7014;DHT22;3547;50.774;12.918;2024-01-25T03:59:24;6.20;1.00
7014;DHT22;3547;50.774;12.918;2024-01-25T04:01:50;6.20;1.00
7014;DHT22;3547;50.774;12.918;2024-01-25T04:04:16;6.20;1.00
7014;DHT22;3547;50.774;12.918;2024-01-25T04:06:44;6.20;1.00
7014;DHT22;3547;50.774;12.918;2024-01-25T04:09:11;6.20;1.00
7014;DHT22;3547;50.774;12.918;2024-01-25T04:11:38;6.20;1.00
7014;DHT22;3547;50.774;12.918;2024-01-25T04:14:04;6.20;1.00
7014;DHT22;3547;50.774;12.918;2024-01-25T04:16:31;6.30;1.00
7014;DHT22;3547;50.774;12.918;2024-01-25T04:18:58;6.20;1.00
7014;DHT22;3547;50.774;12.918;2024-01-25T04:21:24;6.20;1.00
7014;DHT22;3547;50.774;12.918;2024-01-25T04:23:50;6.20;1.00
7014;DHT22;3547;50.774;12.918;2024-01-25T04:26:16;6.20;1.00
7014;DHT22;3547;50.774;12.918;2024-01-25T04:28:42;6.20;1.00
7014;DHT22;3547;50.774;12.918;2024-01-25T04:31:08;6.20;1.00
7014;DHT22;3547;50.774;12.918;2024-01-25T04:33:35;6.20;1.00
7014;DHT22;3547;50.774;12.918;2024-01-25T04:36:01;6.20;1.00
7014;DHT22;3547;50.774;12.918;2024-01-25T04:38:27;6.20;1.00
7014;DHT22;3547;50.774;12.918;2024-01-25T04:40:53;6.20;1.00
7014;DHT22;3547;50.774;12.918;2024-01-25T04:43:19;6.20;1.00
7014;DHT22;3547;50.774;12.918;2024-01-25T04:45:45;6.10;1.00
7014;DHT22;3547;50.774;12.918;2024-01-25T04:48:11;6.20;1.00
7014;DHT22;3547;50.774;12.918;2024-01-25T04:50:38;6.10;1.00
7014;DHT22;3547;50.774;12.918;2024-01-25T04:53:05;6.10;1.00
7014;DHT22;3547;50.774;12.918;2024-01-25T04:55:31;6.10;1.00
7014;DHT22;3547;50.774;12.918;2024-01-25T04:57:57;6.10;1.00
7014;DHT22;3547;50.774;12.918;2024-01-25T05:00:23;6.10;1.00
7014;DHT22;3547;50.774;12.918;2024-01-25T05:02:49;6.10;1.00
7014;DHT22;3547;50.774;12.918;2024-01-25T05:05:16;6.10;1.00
7014;DHT22;3547;50.774;12.918;2024-01-25T05:07:42;6.10;1.00
7014;DHT22;3547;50.774;12.918;2024-01-25T05:10:08;6.10;1.00
7014;DHT22;3547;50.774;12.918;2024-01-25T05:12:34;6.10;1.00
7014;DHT22;3547;50.774;12.918;2024-01-25T05:15:00;6.10;1.00
7014;DHT22;3547;50.774;12.918;2024-01-25T05:17:27;6.10;1.00
7014;DHT22;3547;50.774;12.918;2024-01-25T05:19:53;6.10;1.00
7014;DHT22;3547;50.774;12.918;2024-01-25T05:22:19;6.10;1.00
7014;DHT22;3547;50.774;12.918;2024-01-25T05:24:47;6.10;1.00
7014;DHT22;3547;50.774;12.918;2024-01-25T05:27:13;6.10;1.00
7014;DHT22;3547;50.774;12.918;2024-01-25T05:29:39;6.10;1.00
7014;DHT22;3547;50.774;12.918;2024-01-25T05:32:06;6.00;1.00
7014;DHT22;3547;50.774;12.918;2024-01-25T05:34:33;6.00;1.00
7014;DHT22;3547;50.774;12.918;2024-01-25T05:36:59;6.00;1.00
7014;DHT22;3547;50.774;12.918;2024-01-25T05:39:25;6.00;1.00
7014;DHT22;3547;50.774;12.918;2024-01-25T05:41:51;6.00;1.00
7014;DHT22;3547;50.774;12.918;2024-01-25T05:44:18;5.90;1.00
7014;DHT22;3547;50.774;12.918;2024-01-25T05:46:44;6.00;1.00
7014;DHT22;3547;50.774;12.918;2024-01-25T05:49:10;6.00;1.00
7014;DHT22;3547;50.774;12.918;2024-01-25T05:51:36;5.90;1.00
7014;DHT22;3547;50.774;12.918;2024-01-25T05:54:02;5.90;1.00
7014;DHT22;3547;50.774;12.918;2024-01-25T05:56:29;5.90;1.00
7014;DHT22;3547;50.774;12.918;2024-01-25T05:58:55;5.90;1.00
7014;DHT22;3547;50.774;12.918;2024-01-25T06:01:22;5.90;1.00
7014;DHT22;3547;50.774;12.918;2024-01-25T06:03:48;5.90;1.00
7014;DHT22;3547;50.774;12.918;2024-01-25T06:06:14;5.90;1.00
7014;DHT22;3547;50.774;12.918;2024-01-25T06:08:40;5.90;1.00
7014;DHT22;3547;50.774;12.918;2024-01-25T06:11:06;5.80;1.00
7014;DHT22;3547;50.774;12.918;2024-01-25T06:13:32;5.90;1.00
7014;DHT22;3547;50.774;12.918;2024-01-25T06:15:58;5.80;1.00
7014;DHT22;3547;50.774;12.918;2024-01-25T06:18:26;5.80;1.00
7014;DHT22;3547;50.774;12.918;2024-01-25T06:20:52;5.80;1.00
7014;DHT22;3547;50.774;12.918;2024-01-25T06:23:19;5.80;1.00
7014;DHT22;3547;50.774;12.918;2024-01-25T06:25:45;5.70;1.00
7014;DHT22;3547;50.774;12.918;2024-01-25T06:28:11;5.80;1.00
7014;DHT22;3547;50.774;12.918;2024-01-25T06:30:37;5.70;1.00
7014;DHT22;3547;50.774;12.918;2024-01-25T06:33:04;5.80;1.00
7014;DHT22;3547;50.774;12.918;2024-01-25T06:35:31;5.70;1.00
7014;DHT22;3547;50.774;12.918;2024-01-25T06:37:57;5.70;1.00
7014;DHT22;3547;50.774;12.918;2024-01-25T06:40:23;5.70;1.00
7014;DHT22;3547;50.774;12.918;2024-01-25T06:42:49;5.70;1.00
7014;DHT22;3547;50.774;12.918;2024-01-25T06:45:16;5.70;1.00
7014;DHT22;3547;50.774;12.918;2024-01-25T06:47:43;5.70;1.00
7014;DHT22;3547;50.774;12.918;2024-01-25T06:50:09;5.70;1.00
7014;DHT22;3547;50.774;12.918;2024-01-25T06:52:35;5.70;1.00
7014;DHT22;3547;50.774;12.918;2024-01-25T06:55:02;5.80;1.00
7014;DHT22;3547;50.774;12.918;2024-01-25T06:57:28;5.70;1.00
7014;DHT22;3547;50.774;12.918;2024-01-25T06:59:54;5.70;1.00
7014;DHT22;3547;50.774;12.918;2024-01-25T07:02:20;5.80;1.00
7014;DHT22;3547;50.774;12.918;2024-01-25T07:04:46;5.80;1.00
7014;DHT22;3547;50.774;12.918;2024-01-25T07:07:12;5.70;1.00
7014;DHT22;3547;50.774;12.918;2024-01-25T07:09:39;5.70;1.00
7014;DHT22;3547;50.774;12.918;2024-01-25T07:12:05;5.70;1.00
7014;DHT22;3547;50.774;12.918;2024-01-25T07:14:31;5.70;1.00
7014;DHT22;3547;50.774;12.918;2024-01-25T07:16:57;5.70;1.00
7014;DHT22;3547;50.774;12.918;2024-01-25T07:19:23;5.70;1.00
7014;DHT22;3547;50.774;12.918;2024-01-25T07:21:49;5.70;1.00
7014;DHT22;3547;50.774;12.918;2024-01-25T07:24:16;5.60;1.00
7014;DHT22;3547;50.774;12.918;2024-01-25T07:26:42;5.60;1.00
7014;DHT22;3547;50.774;12.918;2024-01-25T07:29:08;5.60;1.00
7014;DHT22;3547;50.774;12.918;2024-01-25T07:31:34;5.60;1.00
7014;DHT22;3547;50.774;12.918;2024-01-25T07:34:00;5.70;1.00
7014;DHT22;3547;50.774;12.918;2024-01-25T07:36:26;5.60;1.00
7014;DHT22;3547;50.774;12.918;2024-01-25T07:38:53;5.70;1.00
7014;DHT22;3547;50.774;12.918;2024-01-25T07:41:19;5.60;1.00
7014;DHT22;3547;50.774;12.918;2024-01-25T07:43:45;5.60;1.00
7014;DHT22;3547;50.774;12.918;2024-01-25T07:46:11;5.70;1.00
7014;DHT22;3547;50.774;12.918;2024-01-25T07:48:40;5.60;1.00
7014;DHT22;3547;50.774;12.918;2024-01-25T07:51:13;5.60;1.00
7014;DHT22;3547;50.774;12.918;2024-01-25T07:53:39;5.60;1.00
7014;DHT22;3547;50.774;12.918;2024-01-25T07:56:09;5.60;1.00
7014;DHT22;3547;50.774;12.918;2024-01-25T07:58:37;5.60;1.00
7014;DHT22;3547;50.774;12.918;2024-01-25T08:01:04;5.60;1.00
7014;DHT22;3547;50.774;12.918;2024-01-25T08:03:33;5.70;1.00
7014;DHT22;3547;50.774;12.918;2024-01-25T08:06:01;5.70;1.00
7014;DHT22;3547;50.774;12.918;2024-01-25T08:08:28;5.70;1.00
7014;DHT22;3547;50.774;12.918;2024-01-25T08:10:54;5.70;1.00
7014;DHT22;3547;50.774;12.918;2024-01-25T08:13:20;5.70;1.00
7014;DHT22;3547;50.774;12.918;2024-01-25T08:15:47;5.70;1.00
7014;DHT22;3547;50.774;12.918;2024-01-25T08:18:13;5.70;1.00
7014;DHT22;3547;50.774;12.918;2024-01-25T08:20:39;5.70;1.00
7014;DHT22;3547;50.774;12.918;2024-01-25T08:23:05;5.80;1.00
7014;DHT22;3547;50.774;12.918;2024-01-25T08:25:34;5.80;1.00
7014;DHT22;3547;50.774;12.918;2024-01-25T08:28:00;5.80;1.00
7014;DHT22;3547;50.774;12.918;2024-01-25T08:30:26;5.90;1.00
7014;DHT22;3547;50.774;12.918;2024-01-25T08:32:52;5.90;1.00
7014;DHT22;3547;50.774;12.918;2024-01-25T08:35:19;5.90;1.00
7014;DHT22;3547;50.774;12.918;2024-01-25T08:37:45;6.00;1.00
7014;DHT22;3547;50.774;12.918;2024-01-25T08:40:11;6.00;1.00
7014;DHT22;3547;50.774;12.918;2024-01-25T08:42:38;6.00;1.00
7014;DHT22;3547;50.774;12.918;2024-01-25T08:45:04;6.10;1.00
7014;DHT22;3547;50.774;12.918;2024-01-25T08:47:33;6.10;1.00
7014;DHT22;3547;50.774;12.918;2024-01-25T08:49:59;6.20;1.00
7014;DHT22;3547;50.774;12.918;2024-01-25T08:52:29;6.20;1.00
7014;DHT22;3547;50.774;12.918;2024-01-25T08:54:55;6.30;1.00
7014;DHT22;3547;50.774;12.918;2024-01-25T08:57:21;6.40;1.00
7014;DHT22;3547;50.774;12.918;2024-01-25T08:59:48;6.50;1.00
7014;DHT22;3547;50.774;12.918;2024-01-25T09:02:14;6.60;1.00
7014;DHT22;3547;50.774;12.918;2024-01-25T09:04:40;6.60;1.00
7014;DHT22;3547;50.774;12.918;2024-01-25T09:07:09;6.60;1.00
7014;DHT22;3547;50.774;12.918;2024-01-25T09:09:35;6.60;1.00
7014;DHT22;3547;50.774;12.918;2024-01-25T09:12:01;6.70;1.00
7014;DHT22;3547;50.774;12.918;2024-01-25T09:14:27;7.00;1.00
7014;DHT22;3547;50.774;12.918;2024-01-25T09:16:54;7.10;1.00
7014;DHT22;3547;50.774;12.918;2024-01-25T09:19:20;7.00;1.00
7014;DHT22;3547;50.774;12.918;2024-01-25T09:21:46;7.10;1.00
7014;DHT22;3547;50.774;12.918;2024-01-25T09:24:12;7.20;1.00
7014;DHT22;3547;50.774;12.918;2024-01-25T09:26:38;7.30;1.00
7014;DHT22;3547;50.774;12.918;2024-01-25T09:29:04;7.30;1.00
7014;DHT22;3547;50.774;12.918;2024-01-25T09:31:31;7.30;1.00
7014;DHT22;3547;50.774;12.918;2024-01-25T09:33:57;7.20;1.00
7014;DHT22;3547;50.774;12.918;2024-01-25T09:36:23;7.20;1.00
7014;DHT22;3547;50.774;12.918;2024-01-25T09:38:49;7.10;1.00
7014;DHT22;3547;50.774;12.918;2024-01-25T09:41:15;7.30;1.00
7014;DHT22;3547;50.774;12.918;2024-01-25T09:43:41;7.30;1.00
7014;DHT22;3547;50.774;12.918;2024-01-25T09:46:13;7.20;1.00
7014;DHT22;3547;50.774;12.918;2024-01-25T09:48:39;7.10;1.00
7014;DHT22;3547;50.774;12.918;2024-01-25T09:51:06;6.80;1.00
7014;DHT22;3547;50.774;12.918;2024-01-25T09:53:33;6.80;1.00
7014;DHT22;3547;50.774;12.918;2024-01-25T09:56:05;6.70;1.00
7014;DHT22;3547;50.774;12.918;2024-01-25T09:58:39;6.60;1.00
7014;DHT22;3547;50.774;12.918;2024-01-25T10:01:10;6.50;1.00
7014;DHT22;3547;50.774;12.918;2024-01-25T10:03:37;6.50;1.00
7014;DHT22;3547;50.774;12.918;2024-01-25T10:06:06;6.50;1.00
7014;DHT22;3547;50.774;12.918;2024-01-25T10:08:36;6.50;1.00
7014;DHT22;3547;50.774;12.918;2024-01-25T10:11:03;6.70;1.00
7014;DHT22;3547;50.774;12.918;2024-01-25T10:16:51;6.70;1.00
7014;DHT22;3547;50.774;12.918;2024-01-25T10:19:17;6.70;1.00
7014;DHT22;3547;50.774;12.918;2024-01-25T10:21:43;6.90;1.00
7014;DHT22;3547;50.774;12.918;2024-01-25T10:24:10;6.80;1.00
7014;DHT22;3547;50.774;12.918;2024-01-25T10:26:36;7.00;1.00
7014;DHT22;3547;50.774;12.918;2024-01-25T10:29:03;7.00;1.00
7014;DHT22;3547;50.774;12.918;2024-01-25T10:31:29;7.20;1.00
7014;DHT22;3547;50.774;12.918;2024-01-25T10:33:56;7.40;1.00
7014;DHT22;3547;50.774;12.918;2024-01-25T10:36:26;7.50;1.00
7014;DHT22;3547;50.774;12.918;2024-01-25T10:38:57;7.50;1.00
7014;DHT22;3547;50.774;12.918;2024-01-25T10:41:25;7.50;1.00
7014;DHT22;3547;50.774;12.918;2024-01-25T10:43:52;7.20;1.00
7014;DHT22;3547;50.774;12.918;2024-01-25T10:46:18;7.30;1.00
7014;DHT22;3547;50.774;12.918;2024-01-25T10:48:45;7.30;1.00
7014;DHT22;3547;50.774;12.918;2024-01-25T10:51:11;7.10;1.00
7014;DHT22;3547;50.774;12.918;2024-01-25T10:53:40;7.00;1.00
7014;DHT22;3547;50.774;12.918;2024-01-25T10:56:07;7.10;1.00
7014;DHT22;3547;50.774;12.918;2024-01-25T10:58:33;7.30;1.00
7014;DHT22;3547;50.774;12.918;2024-01-25T11:01:01;7.50;1.00
7014;DHT22;3547;50.774;12.918;2024-01-25T11:03:29;7.70;1.00
7014;DHT22;3547;50.774;12.918;2024-01-25T11:06:11;7.80;1.00
7014;DHT22;3547;50.774;12.918;2024-01-25T11:08:38;8.00;1.00
7014;DHT22;3547;50.774;12.918;2024-01-25T11:11:06;7.60;1.00
7014;DHT22;3547;50.774;12.918;2024-01-25T11:13:38;7.50;1.00
7014;DHT22;3547;50.774;12.918;2024-01-25T11:16:27;7.30;1.00
7014;DHT22;3547;50.774;12.918;2024-01-25T11:18:58;7.30;1.00
7014;DHT22;3547;50.774;12.918;2024-01-25T11:21:43;7.30;1.00
7014;DHT22;3547;50.774;12.918;2024-01-25T11:24:23;7.40;1.00
7014;DHT22;3547;50.774;12.918;2024-01-25T11:26:54;7.60;1.00
7014;DHT22;3547;50.774;12.918;2024-01-25T11:29:21;7.80;1.00
7014;DHT22;3547;50.774;12.918;2024-01-25T11:31:50;7.80;1.00
7014;DHT22;3547;50.774;12.918;2024-01-25T11:34:17;7.60;1.00
7014;DHT22;3547;50.774;12.918;2024-01-25T11:36:46;7.60;1.00
7014;DHT22;3547;50.774;12.918;2024-01-25T11:39:14;7.40;1.00
7014;DHT22;3547;50.774;12.918;2024-01-25T11:41:42;7.40;1.00
7014;DHT22;3547;50.774;12.918;2024-01-25T11:44:12;7.20;1.00
7014;DHT22;3547;50.774;12.918;2024-01-25T11:46:39;7.20;1.00
7014;DHT22;3547;50.774;12.918;2024-01-25T11:49:05;7.30;1.00
7014;DHT22;3547;50.774;12.918;2024-01-25T11:51:33;7.50;1.00
7014;DHT22;3547;50.774;12.918;2024-01-25T11:54:00;7.30;1.00
7014;DHT22;3547;50.774;12.918;2024-01-25T11:56:28;7.50;1.00
7014;DHT22;3547;50.774;12.918;2024-01-25T11:58:56;7.50;1.00
7014;DHT22;3547;50.774;12.918;2024-01-25T12:01:26;7.60;1.00
7014;DHT22;3547;50.774;12.918;2024-01-25T12:03:53;7.50;1.00
7014;DHT22;3547;50.774;12.918;2024-01-25T12:06:20;7.40;1.00
7014;DHT22;3547;50.774;12.918;2024-01-25T12:08:46;7.40;1.00
7014;DHT22;3547;50.774;12.918;2024-01-25T12:11:14;7.30;1.00
7014;DHT22;3547;50.774;12.918;2024-01-25T12:13:44;7.40;1.00
7014;DHT22;3547;50.774;12.918;2024-01-25T12:16:11;7.30;1.00
7014;DHT22;3547;50.774;12.918;2024-01-25T12:18:37;7.20;1.00
7014;DHT22;3547;50.774;12.918;2024-01-25T12:21:05;7.20;1.00
7014;DHT22;3547;50.774;12.918;2024-01-25T12:26:00;7.30;1.00
7014;DHT22;3547;50.774;12.918;2024-01-25T12:28:27;7.30;1.00
7014;DHT22;3547;50.774;12.918;2024-01-25T12:30:55;7.20;1.00
7014;DHT22;3547;50.774;12.918;2024-01-25T12:33:21;7.40;1.00
7014;DHT22;3547;50.774;12.918;2024-01-25T12:35:47;7.50;1.00
7014;DHT22;3547;50.774;12.918;2024-01-25T12:38:13;7.50;1.00
7014;DHT22;3547;50.774;12.918;2024-01-25T12:40:42;7.40;1.00
7014;DHT22;3547;50.774;12.918;2024-01-25T12:43:09;7.40;1.00
7014;DHT22;3547;50.774;12.918;2024-01-25T12:45:35;7.50;1.00
7014;DHT22;3547;50.774;12.918;2024-01-25T12:48:01;7.60;1.00
7014;DHT22;3547;50.774;12.918;2024-01-25T12:50:28;7.60;1.00
7014;DHT22;3547;50.774;12.918;2024-01-25T12:52:54;7.90;1.00
7014;DHT22;3547;50.774;12.918;2024-01-25T12:55:21;7.70;1.00
7014;DHT22;3547;50.774;12.918;2024-01-25T12:57:47;7.70;1.00
7014;DHT22;3547;50.774;12.918;2024-01-25T13:00:13;7.60;1.00
7014;DHT22;3547;50.774;12.918;2024-01-25T13:02:39;7.80;1.00
7014;DHT22;3547;50.774;12.918;2024-01-25T13:05:06;7.90;1.00
7014;DHT22;3547;50.774;12.918;2024-01-25T13:07:32;8.00;1.00
7014;DHT22;3547;50.774;12.918;2024-01-25T13:09:58;8.00;1.00
7014;DHT22;3547;50.774;12.918;2024-01-25T13:12:24;7.80;1.00
7014;DHT22;3547;50.774;12.918;2024-01-25T13:14:51;7.70;1.00
7014;DHT22;3547;50.774;12.918;2024-01-25T13:17:17;7.40;1.00
7014;DHT22;3547;50.774;12.918;2024-01-25T13:19:43;7.30;1.00
7014;DHT22;3547;50.774;12.918;2024-01-25T13:22:12;7.20;1.00
7014;DHT22;3547;50.774;12.918;2024-01-25T13:24:41;7.20;1.00
7014;DHT22;3547;50.774;12.918;2024-01-25T13:27:07;7.10;1.00
7014;DHT22;3547;50.774;12.918;2024-01-25T13:29:34;7.10;1.00
7014;DHT22;3547;50.774;12.918;2024-01-25T13:32:00;6.90;1.00
7014;DHT22;3547;50.774;12.918;2024-01-25T13:34:26;6.90;1.00
7014;DHT22;3547;50.774;12.918;2024-01-25T13:36:52;6.90;1.00
7014;DHT22;3547;50.774;12.918;2024-01-25T13:39:18;6.80;1.00
7014;DHT22;3547;50.774;12.918;2024-01-25T13:41:44;6.80;1.00
7014;DHT22;3547;50.774;12.918;2024-01-25T13:44:14;7.00;1.00
7014;DHT22;3547;50.774;12.918;2024-01-25T13:46:40;7.00;1.00
7014;DHT22;3547;50.774;12.918;2024-01-25T13:49:06;7.00;1.00
7014;DHT22;3547;50.774;12.918;2024-01-25T13:51:32;6.80;1.00
7014;DHT22;3547;50.774;12.918;2024-01-25T13:53:58;6.70;1.00
7014;DHT22;3547;50.774;12.918;2024-01-25T13:56:25;6.80;1.00
7014;DHT22;3547;50.774;12.918;2024-01-25T13:58:51;6.80;1.00
7014;DHT22;3547;50.774;12.918;2024-01-25T14:01:18;6.80;1.00
7014;DHT22;3547;50.774;12.918;2024-01-25T14:03:44;6.80;1.00
7014;DHT22;3547;50.774;12.918;2024-01-25T14:06:10;6.90;1.00
7014;DHT22;3547;50.774;12.918;2024-01-25T14:08:36;6.90;1.00
7014;DHT22;3547;50.774;12.918;2024-01-25T14:11:03;6.70;1.00
7014;DHT22;3547;50.774;12.918;2024-01-25T14:13:29;6.70;1.00
7014;DHT22;3547;50.774;12.918;2024-01-25T14:15:56;6.70;1.00
7014;DHT22;3547;50.774;12.918;2024-01-25T14:18:22;6.60;1.00
7014;DHT22;3547;50.774;12.918;2024-01-25T14:20:49;6.60;1.00
7014;DHT22;3547;50.774;12.918;2024-01-25T14:23:15;6.60;1.00
7014;DHT22;3547;50.774;12.918;2024-01-25T14:25:41;6.60;1.00
7014;DHT22;3547;50.774;12.918;2024-01-25T14:28:07;6.70;1.00
7014;DHT22;3547;50.774;12.918;2024-01-25T14:30:34;6.70;1.00
7014;DHT22;3547;50.774;12.918;2024-01-25T14:33:00;6.50;1.00
7014;DHT22;3547;50.774;12.918;2024-01-25T14:35:26;6.40;1.00
7014;DHT22;3547;50.774;12.918;2024-01-25T14:37:57;6.40;1.00
7014;DHT22;3547;50.774;12.918;2024-01-25T14:40:24;6.30;1.00
7014;DHT22;3547;50.774;12.918;2024-01-25T14:42:50;6.20;1.00
7014;DHT22;3547;50.774;12.918;2024-01-25T14:45:17;6.20;1.00
7014;DHT22;3547;50.774;12.918;2024-01-25T14:47:43;6.20;1.00
7014;DHT22;3547;50.774;12.918;2024-01-25T14:50:09;6.10;1.00
7014;DHT22;3547;50.774;12.918;2024-01-25T14:52:35;6.10;1.00
7014;DHT22;3547;50.774;12.918;2024-01-25T14:55:01;6.10;1.00
7014;DHT22;3547;50.774;12.918;2024-01-25T14:57:28;6.10;1.00
7014;DHT22;3547;50.774;12.918;2024-01-25T14:59:54;6.00;1.00
7014;DHT22;3547;50.774;12.918;2024-01-25T15:02:20;6.00;1.00
7014;DHT22;3547;50.774;12.918;2024-01-25T15:04:46;5.90;1.00
7014;DHT22;3547;50.774;12.918;2024-01-25T15:07:12;5.90;1.00
7014;DHT22;3547;50.774;12.918;2024-01-25T15:09:40;5.90;1.00
7014;DHT22;3547;50.774;12.918;2024-01-25T15:12:09;5.80;1.00
7014;DHT22;3547;50.774;12.918;2024-01-25T15:14:35;5.80;1.00
7014;DHT22;3547;50.774;12.918;2024-01-25T15:17:01;5.80;1.00
7014;DHT22;3547;50.774;12.918;2024-01-25T15:19:27;5.80;1.00
7014;DHT22;3547;50.774;12.918;2024-01-25T15:21:54;5.70;1.00
7014;DHT22;3547;50.774;12.918;2024-01-25T15:24:20;5.70;1.00
7014;DHT22;3547;50.774;12.918;2024-01-25T15:26:46;5.70;1.00
7014;DHT22;3547;50.774;12.918;2024-01-25T15:29:13;5.60;1.00
7014;DHT22;3547;50.774;12.918;2024-01-25T15:31:39;5.50;1.00
7014;DHT22;3547;50.774;12.918;2024-01-25T15:34:06;5.40;1.00
7014;DHT22;3547;50.774;12.918;2024-01-25T15:36:32;5.30;1.00
7014;DHT22;3547;50.774;12.918;2024-01-25T15:39:00;5.30;1.00
7014;DHT22;3547;50.774;12.918;2024-01-25T15:41:29;5.30;1.00
7014;DHT22;3547;50.774;12.918;2024-01-25T15:43:56;5.30;1.00
7014;DHT22;3547;50.774;12.918;2024-01-25T15:46:26;5.20;1.00
7014;DHT22;3547;50.774;12.918;2024-01-25T15:48:52;5.10;1.00
7014;DHT22;3547;50.774;12.918;2024-01-25T15:51:20;5.10;1.00
7014;DHT22;3547;50.774;12.918;2024-01-25T15:53:48;5.00;1.00
7014;DHT22;3547;50.774;12.918;2024-01-25T15:56:14;4.90;1.00
7014;DHT22;3547;50.774;12.918;2024-01-25T15:58:40;4.80;1.00
7014;DHT22;3547;50.774;12.918;2024-01-25T16:01:06;4.80;1.00
7014;DHT22;3547;50.774;12.918;2024-01-25T16:03:33;4.70;1.00
7014;DHT22;3547;50.774;12.918;2024-01-25T16:05:59;4.70;1.00
7014;DHT22;3547;50.774;12.918;2024-01-25T16:08:26;4.70;1.00
7014;DHT22;3547;50.774;12.918;2024-01-25T16:10:52;4.70;1.00
7014;DHT22;3547;50.774;12.918;2024-01-25T16:13:18;4.60;1.00
7014;DHT22;3547;50.774;12.918;2024-01-25T16:15:44;4.60;1.00
7014;DHT22;3547;50.774;12.918;2024-01-25T16:18:11;4.60;1.00
7014;DHT22;3547;50.774;12.918;2024-01-25T16:20:37;4.50;1.00
7014;DHT22;3547;50.774;12.918;2024-01-25T16:23:03;4.40;1.00
7014;DHT22;3547;50.774;12.918;2024-01-25T16:25:29;4.40;1.00